Columbus, GA

8:11 PM EDT on August 30, 2015 (GMT -0400)
Columbus Metro | | Change Station
CLOSE
Current Station
Airport
Location: Columbus,
Elevation: 397 ft
Nearby Weather Stations

Elev 397 ft 32.52 °N, 84.94 °W | Updated 20 minutes ago

Clear
Clear
80 °F
Feels Like 83 °F
N
6
Wind Variable Wind from East

Today
High -- | Low -- °F
--% Chance of Precip.
Yesterday
High -- | Low -- °F
Precip. -- in
7:13 AM 8:07 PM
Full, 98% visible
Pressure 30.00 in
Visibility 10.0 miles
Clouds Few 5000 ft
Heat Index 83 °F
Dew Point 70 °F
Humidity 71%
Rainfall 0.00 in
Snow Depth Not available.
UV 0 out of 12
Pollen 7.70 out of 12
Air Quality Not available.
Flu Activity Not available.
METAR KCSG 302351Z 08005KT 10SM FEW050 27/21 A3001 RMK AO2 SLP159 T02670211 10306 20267 53002
Pressure 30.00 in
Visibility 10.0 miles
Clouds Few 5000 ft
Heat Index 83 °F
Dew Point 70 °F
Humidity 71%
Rainfall 0.00 in
Snow Depth Not available.
UV 0 out of 12
Pollen 7.70 out of 12
Air Quality Not available.
Flu Activity Not available.
METAR KCSG 302351Z 08005KT 10SM FEW050 27/21 A3001 RMK AO2 SLP159 T02670211 10306 20267 53002

10-Day Weather Forecast

×

Almanac

Astronomy

Aug. 30, 2015 Rise Set
Actual Time
Civil Twilight
Nautical Twilight
Astronomical Twilight
Moon
Length of Visible Light
Length of Day
Tomorrow will be .
, % of the Moon is Illuminated

Today's Extremes

State Highs State Lows

Community

WunderPhotos

Upload Photos

1,851,100 photos uploaded!

WunderBlogs® & News

Nearby

Air Quality

  Air Quality AQ Index Pollutant
Not available.

Snow Depth

Station Depth Elevation

Earthquake Activity

City Distance Mag. Time & Date
Minimum magnitude displayed is 2.5.

Coastal Water Temperatures

Place Temperature

Stations

Nearby Weather Stations

Station Location Temp. Windchill Dew Point Humidity Wind Precip. Elev Updated Type